Terminal Aerodrome Forecast
Issued by NWS

Home | Current Version | Previous Version | Graphics & Text | Print | Product List | Glossary On
Versions: 1 2 3 4 5 6 7 8 9 10 11 12 13 14 15 16 17 18 19 20 21
000
FTUS43 KTOP 161700
TAFMHK
TAF
KMHK 161740Z 1618/1718 33010KT P6SM BKN020
     FM162200 35004KT P6SM FEW025 SCT250
     FM171500 08004KT P6SM BKN150=

USA.gov is the U.S. government's official web portal to all federal, state and local government web resources and services.